sensor_id;sensor_type;location;lat;lon;timestamp;temperature;humidity
9081;DHT22;13509;50.760;6.080;2023-07-22T20:08:38;18.30;99.90
9081;DHT22;13509;50.760;6.080;2023-07-22T20:11:06;18.20;99.90
9081;DHT22;13509;50.760;6.080;2023-07-22T20:13:34;18.20;99.90
9081;DHT22;13509;50.760;6.080;2023-07-22T20:16:03;18.20;99.90
9081;DHT22;13509;50.760;6.080;2023-07-22T20:18:31;18.10;99.90
9081;DHT22;13509;50.760;6.080;2023-07-22T20:20:59;18.10;99.90
9081;DHT22;13509;50.760;6.080;2023-07-22T20:23:27;18.00;99.90
9081;DHT22;13509;50.760;6.080;2023-07-22T20:25:56;17.90;99.90
9081;DHT22;13509;50.760;6.080;2023-07-22T20:28:24;17.90;99.90
9081;DHT22;13509;50.760;6.080;2023-07-22T20:30:52;17.80;99.90
9081;DHT22;13509;50.760;6.080;2023-07-22T20:33:23;17.70;99.90
9081;DHT22;13509;50.760;6.080;2023-07-22T20:35:54;17.70;99.90
9081;DHT22;13509;50.760;6.080;2023-07-22T20:38:22;17.60;99.90
9081;DHT22;13509;50.760;6.080;2023-07-22T20:40:50;17.50;99.90
9081;DHT22;13509;50.760;6.080;2023-07-22T20:43:20;17.50;99.90
9081;DHT22;13509;50.760;6.080;2023-07-22T20:53:14;17.60;99.90
9081;DHT22;13509;50.760;6.080;2023-07-22T20:55:42;17.60;99.90
9081;DHT22;13509;50.760;6.080;2023-07-22T20:58:10;17.60;99.90
9081;DHT22;13509;50.760;6.080;2023-07-22T21:00:42;17.60;99.90
9081;DHT22;13509;50.760;6.080;2023-07-22T21:03:10;17.50;99.90
9081;DHT22;13509;50.760;6.080;2023-07-22T21:05:38;17.50;99.90
9081;DHT22;13509;50.760;6.080;2023-07-22T21:08:07;17.50;99.90
9081;DHT22;13509;50.760;6.080;2023-07-22T21:10:35;17.60;99.90
9081;DHT22;13509;50.760;6.080;2023-07-22T21:13:02;17.60;99.90
9081;DHT22;13509;50.760;6.080;2023-07-22T21:15:30;17.60;99.90
9081;DHT22;13509;50.760;6.080;2023-07-22T21:18:00;17.60;99.90
9081;DHT22;13509;50.760;6.080;2023-07-22T21:20:30;17.60;99.90
9081;DHT22;13509;50.760;6.080;2023-07-22T21:22:58;17.60;99.90
9081;DHT22;13509;50.760;6.080;2023-07-22T21:25:26;17.60;99.90
9081;DHT22;13509;50.760;6.080;2023-07-22T21:27:54;17.60;99.90
9081;DHT22;13509;50.760;6.080;2023-07-22T21:30:21;17.50;99.90
9081;DHT22;13509;50.760;6.080;2023-07-22T21:32:49;17.50;99.90
9081;DHT22;13509;50.760;6.080;2023-07-22T21:35:19;17.50;99.90
9081;DHT22;13509;50.760;6.080;2023-07-22T21:37:47;17.50;99.90
9081;DHT22;13509;50.760;6.080;2023-07-22T21:40:15;17.50;99.90
9081;DHT22;13509;50.760;6.080;2023-07-22T21:42:43;17.50;99.90
9081;DHT22;13509;50.760;6.080;2023-07-22T21:45:12;17.50;99.90
9081;DHT22;13509;50.760;6.080;2023-07-22T21:47:40;17.50;99.90
9081;DHT22;13509;50.760;6.080;2023-07-22T21:50:09;17.50;99.90
9081;DHT22;13509;50.760;6.080;2023-07-22T21:52:38;17.50;99.90
9081;DHT22;13509;50.760;6.080;2023-07-22T21:55:06;17.50;99.90
9081;DHT22;13509;50.760;6.080;2023-07-22T21:57:35;17.50;99.90
9081;DHT22;13509;50.760;6.080;2023-07-22T22:00:04;17.50;99.90
9081;DHT22;13509;50.760;6.080;2023-07-22T22:02:37;17.50;99.90
9081;DHT22;13509;50.760;6.080;2023-07-22T22:05:06;17.50;99.90
9081;DHT22;13509;50.760;6.080;2023-07-22T22:07:34;17.50;99.90
9081;DHT22;13509;50.760;6.080;2023-07-22T22:10:06;17.50;99.90
9081;DHT22;13509;50.760;6.080;2023-07-22T22:12:35;17.50;99.90
9081;DHT22;13509;50.760;6.080;2023-07-22T22:15:04;17.60;99.90
9081;DHT22;13509;50.760;6.080;2023-07-22T22:17:32;17.60;99.90
9081;DHT22;13509;50.760;6.080;2023-07-22T22:35:11;17.70;99.90
9081;DHT22;13509;50.760;6.080;2023-07-22T22:37:39;17.70;99.90
9081;DHT22;13509;50.760;6.080;2023-07-22T22:40:08;17.70;99.90
9081;DHT22;13509;50.760;6.080;2023-07-22T22:42:38;17.70;99.90
9081;DHT22;13509;50.760;6.080;2023-07-22T22:45:06;17.70;99.90
9081;DHT22;13509;50.760;6.080;2023-07-22T22:47:34;17.70;99.90
9081;DHT22;13509;50.760;6.080;2023-07-22T22:50:02;17.70;99.90
9081;DHT22;13509;50.760;6.080;2023-07-22T22:52:30;17.70;99.90
9081;DHT22;13509;50.760;6.080;2023-07-22T22:54:59;17.70;99.90
9081;DHT22;13509;50.760;6.080;2023-07-22T22:57:27;17.70;99.90
9081;DHT22;13509;50.760;6.080;2023-07-22T22:59:57;17.70;99.90
9081;DHT22;13509;50.760;6.080;2023-07-22T23:02:25;17.70;99.90
9081;DHT22;13509;50.760;6.080;2023-07-22T23:04:53;17.70;99.90
9081;DHT22;13509;50.760;6.080;2023-07-22T23:07:20;17.70;99.90
9081;DHT22;13509;50.760;6.080;2023-07-22T23:09:48;17.70;99.90
9081;DHT22;13509;50.760;6.080;2023-07-22T23:12:16;17.70;99.90
9081;DHT22;13509;50.760;6.080;2023-07-22T23:14:44;17.70;99.90
9081;DHT22;13509;50.760;6.080;2023-07-22T23:17:16;17.70;99.90
9081;DHT22;13509;50.760;6.080;2023-07-22T23:19:45;17.70;99.90
9081;DHT22;13509;50.760;6.080;2023-07-22T23:22:13;17.70;99.90
9081;DHT22;13509;50.760;6.080;2023-07-22T23:24:41;17.60;99.90
9081;DHT22;13509;50.760;6.080;2023-07-22T23:27:09;17.60;99.90
9081;DHT22;13509;50.760;6.080;2023-07-22T23:29:38;17.60;99.90
9081;DHT22;13509;50.760;6.080;2023-07-22T23:32:06;17.60;99.90
9081;DHT22;13509;50.760;6.080;2023-07-22T23:34:37;17.60;99.90
9081;DHT22;13509;50.760;6.080;2023-07-22T23:37:05;17.60;99.90
9081;DHT22;13509;50.760;6.080;2023-07-22T23:39:33;17.60;99.90
9081;DHT22;13509;50.760;6.080;2023-07-22T23:42:01;17.60;99.90
9081;DHT22;13509;50.760;6.080;2023-07-22T23:44:29;17.50;99.90
9081;DHT22;13509;50.760;6.080;2023-07-22T23:46:57;17.50;99.90
9081;DHT22;13509;50.760;6.080;2023-07-22T23:49:25;17.50;99.90
9081;DHT22;13509;50.760;6.080;2023-07-22T23:51:54;17.50;99.90
9081;DHT22;13509;50.760;6.080;2023-07-22T23:54:22;17.50;99.90
9081;DHT22;13509;50.760;6.080;2023-07-22T23:56:50;17.50;99.90
9081;DHT22;13509;50.760;6.080;2023-07-22T23:59:18;17.50;99.90
